sensor_id;sensor_type;location;lat;lon;timestamp;pressure;altitude;pressure_sealevel;temperature;humidity
32452;BME280;45528;52.102;5.242;2023-04-22T00:01:21;100461.0;;;13.86;66.38
32452;BME280;45528;52.102;5.242;2023-04-22T00:04:34;100462.0;;;13.79;66.85
32452;BME280;45528;52.102;5.242;2023-04-22T00:06:12;100458.0;;;13.78;66.58
32452;BME280;45528;52.102;5.242;2023-04-22T00:07:48;100455.0;;;13.81;66.49
32452;BME280;45528;52.102;5.242;2023-04-22T00:11:00;100453.0;;;13.76;66.62
32452;BME280;45528;52.102;5.242;2023-04-22T00:12:36;100449.0;;;13.7;66.64
32452;BME280;45528;52.102;5.242;2023-04-22T00:14:12;100449.0;;;13.76;66.33
32452;BME280;45528;52.102;5.242;2023-04-22T00:17:25;100450.0;;;13.72;66.23
32452;BME280;45528;52.102;5.242;2023-04-22T00:19:03;100455.0;;;13.73;66.3
32452;BME280;45528;52.102;5.242;2023-04-22T00:20:40;100451.0;;;13.66;65.94
32452;BME280;45528;52.102;5.242;2023-04-22T00:22:16;100450.0;;;13.56;66.8
32452;BME280;45528;52.102;5.242;2023-04-22T00:25:28;100445.0;;;13.59;66.75
32452;BME280;45528;52.102;5.242;2023-04-22T00:27:04;100441.0;;;13.63;66.61
32452;BME280;45528;52.102;5.242;2023-04-22T00:28:40;100441.0;;;13.68;66.23
32452;BME280;45528;52.102;5.242;2023-04-22T00:31:53;100446.0;;;13.66;65.91
32452;BME280;45528;52.102;5.242;2023-04-22T00:33:29;100443.0;;;13.69;65.83
32452;BME280;45528;52.102;5.242;2023-04-22T00:35:06;100436.0;;;13.66;65.94
32452;BME280;45528;52.102;5.242;2023-04-22T00:38:18;100436.0;;;13.64;65.87
32452;BME280;45528;52.102;5.242;2023-04-22T00:39:54;100437.0;;;13.58;65.69
32452;BME280;45528;52.102;5.242;2023-04-22T00:41:31;100434.0;;;13.5;65.59
32452;BME280;45528;52.102;5.242;2023-04-22T00:43:08;100434.0;;;13.43;65.83
32452;BME280;45528;52.102;5.242;2023-04-22T00:46:22;100434.0;;;13.43;65.87
32452;BME280;45528;52.102;5.242;2023-04-22T00:47:58;100437.0;;;13.41;65.77
32452;BME280;45528;52.102;5.242;2023-04-22T00:49:35;100436.0;;;13.4;66.16
32452;BME280;45528;52.102;5.242;2023-04-22T00:52:47;100440.0;;;13.34;66.02
32452;BME280;45528;52.102;5.242;2023-04-22T00:54:24;100442.0;;;13.33;66.12
32452;BME280;45528;52.102;5.242;2023-04-22T00:56:01;100445.0;;;13.32;66.41
32452;BME280;45528;52.102;5.242;2023-04-22T00:59:14;100446.0;;;13.33;66.58
32452;BME280;45528;52.102;5.242;2023-04-22T01:00:50;100441.0;;;13.29;66.3
32452;BME280;45528;52.102;5.242;2023-04-22T01:02:26;100440.0;;;13.3;66.23
32452;BME280;45528;52.102;5.242;2023-04-22T01:04:03;100444.0;;;13.27;65.95
32452;BME280;45528;52.102;5.242;2023-04-22T01:07:16;100447.0;;;13.25;66.05
32452;BME280;45528;52.102;5.242;2023-04-22T01:08:52;100448.0;;;13.19;65.95
32452;BME280;45528;52.102;5.242;2023-04-22T01:10:29;100451.0;;;13.16;65.92
32452;BME280;45528;52.102;5.242;2023-04-22T01:13:41;100451.0;;;13.16;65.7
32452;BME280;45528;52.102;5.242;2023-04-22T01:15:17;100450.0;;;13.11;65.95
32452;BME280;45528;52.102;5.242;2023-04-22T01:16:54;100455.0;;;13.13;65.73
32452;BME280;45528;52.102;5.242;2023-04-22T01:20:08;100455.0;;;13.09;65.75
32452;BME280;45528;52.102;5.242;2023-04-22T01:21:46;100447.0;;;13.09;66.17
32452;BME280;45528;52.102;5.242;2023-04-22T01:23:25;100450.0;;;13.02;66.13
32452;BME280;45528;52.102;5.242;2023-04-22T01:25:01;100449.0;;;13.01;66.16
32452;BME280;45528;52.102;5.242;2023-04-22T01:28:15;100448.0;;;12.99;66.22
32452;BME280;45528;52.102;5.242;2023-04-22T01:29:51;100449.0;;;13.01;66.41
32452;BME280;45528;52.102;5.242;2023-04-22T01:31:28;100447.0;;;13.07;66.05
32452;BME280;45528;52.102;5.242;2023-04-22T01:34:42;100449.0;;;13.08;65.97
32452;BME280;45528;52.102;5.242;2023-04-22T01:36:18;100446.0;;;13.06;65.98
32452;BME280;45528;52.102;5.242;2023-04-22T01:37:54;100452.0;;;13.03;65.91
32452;BME280;45528;52.102;5.242;2023-04-22T01:41:06;100455.0;;;12.95;65.99
32452;BME280;45528;52.102;5.242;2023-04-22T01:42:42;100452.0;;;12.94;65.8
32452;BME280;45528;52.102;5.242;2023-04-22T01:44:18;100452.0;;;12.9;66.3
32452;BME280;45528;52.102;5.242;2023-04-22T01:45:54;100450.0;;;13.05;65.64
32452;BME280;45528;52.102;5.242;2023-04-22T01:49:07;100450.0;;;13.02;65.69
32452;BME280;45528;52.102;5.242;2023-04-22T01:50:43;100449.0;;;12.97;65.81
32452;BME280;45528;52.102;5.242;2023-04-22T01:52:19;100446.0;;;12.85;66.28
32452;BME280;45528;52.102;5.242;2023-04-22T01:55:31;100446.0;;;12.86;66.16
32452;BME280;45528;52.102;5.242;2023-04-22T01:57:08;100440.0;;;12.92;65.94
32452;BME280;45528;52.102;5.242;2023-04-22T01:58:48;100439.0;;;12.81;65.77
32452;BME280;45528;52.102;5.242;2023-04-22T02:02:01;100443.0;;;12.74;65.67
32452;BME280;45528;52.102;5.242;2023-04-22T02:03:37;100447.0;;;12.74;65.78
32452;BME280;45528;52.102;5.242;2023-04-22T02:05:14;100446.0;;;12.62;65.84
32452;BME280;45528;52.102;5.242;2023-04-22T02:06:50;100443.0;;;12.55;66.03
32452;BME280;45528;52.102;5.242;2023-04-22T02:10:02;100447.0;;;12.54;66.13
32452;BME280;45528;52.102;5.242;2023-04-22T02:11:39;100446.0;;;12.48;65.94
32452;BME280;45528;52.102;5.242;2023-04-22T02:13:15;100439.0;;;12.45;65.98
32452;BME280;45528;52.102;5.242;2023-04-22T02:16:28;100444.0;;;12.44;66.05
32452;BME280;45528;52.102;5.242;2023-04-22T02:18:04;100444.0;;;12.45;66.14
32452;BME280;45528;52.102;5.242;2023-04-22T02:19:41;100442.0;;;12.45;66.44
32452;BME280;45528;52.102;5.242;2023-04-22T02:22:53;100442.0;;;12.51;66.47
32452;BME280;45528;52.102;5.242;2023-04-22T02:24:29;100439.0;;;12.51;66.13
32452;BME280;45528;52.102;5.242;2023-04-22T02:26:06;100445.0;;;12.43;66.03
32452;BME280;45528;52.102;5.242;2023-04-22T02:27:43;100441.0;;;12.49;66.28
32452;BME280;45528;52.102;5.242;2023-04-22T02:30:55;100437.0;;;12.6;66.08
32452;BME280;45528;52.102;5.242;2023-04-22T02:32:31;100437.0;;;12.55;65.94
32452;BME280;45528;52.102;5.242;2023-04-22T02:34:07;100438.0;;;12.58;66.05
32452;BME280;45528;52.102;5.242;2023-04-22T02:37:19;100437.0;;;12.57;66.08
32452;BME280;45528;52.102;5.242;2023-04-22T02:38:56;100434.0;;;12.48;66.19
32452;BME280;45528;52.102;5.242;2023-04-22T02:40:32;100430.0;;;12.45;66.16
32452;BME280;45528;52.102;5.242;2023-04-22T02:43:44;100425.0;;;12.45;66.2
32452;BME280;45528;52.102;5.242;2023-04-22T02:45:20;100424.0;;;12.56;65.58
32452;BME280;45528;52.102;5.242;2023-04-22T02:46:56;100421.0;;;12.55;65.41
32452;BME280;45528;52.102;5.242;2023-04-22T02:50:09;100424.0;;;12.54;65.14
32452;BME280;45528;52.102;5.242;2023-04-22T02:51:46;100427.0;;;12.43;65.12
32452;BME280;45528;52.102;5.242;2023-04-22T02:53:22;100431.0;;;12.35;65.55
32452;BME280;45528;52.102;5.242;2023-04-22T02:54:58;100431.0;;;12.33;65.58
32452;BME280;45528;52.102;5.242;2023-04-22T02:58:10;100427.0;;;12.27;65.5
32452;BME280;45528;52.102;5.242;2023-04-22T02:59:46;100422.0;;;12.27;65.58
32452;BME280;45528;52.102;5.242;2023-04-22T03:01:22;100418.0;;;12.41;65.22
32452;BME280;45528;52.102;5.242;2023-04-22T03:04:34;100418.0;;;12.39;64.97
32452;BME280;45528;52.102;5.242;2023-04-22T03:06:11;100416.0;;;12.32;65.02
32452;BME280;45528;52.102;5.242;2023-04-22T03:07:47;100418.0;;;12.25;65.41
32452;BME280;45528;52.102;5.242;2023-04-22T03:10:59;100412.0;;;12.22;65.36
32452;BME280;45528;52.102;5.242;2023-04-22T03:12:35;100415.0;;;12.2;65.87
32452;BME280;45528;52.102;5.242;2023-04-22T03:14:11;100411.0;;;12.21;65.5
32452;BME280;45528;52.102;5.242;2023-04-22T03:15:47;100401.0;;;12.18;65.61
32452;BME280;45528;52.102;5.242;2023-04-22T03:19:00;100405.0;;;12.17;66.05
32452;BME280;45528;52.102;5.242;2023-04-22T03:20:37;100401.0;;;12.27;65.72
32452;BME280;45528;52.102;5.242;2023-04-22T03:22:12;100401.0;;;12.22;65.69
32452;BME280;45528;52.102;5.242;2023-04-22T03:25:24;100402.0;;;12.22;66.0
32452;BME280;45528;52.102;5.242;2023-04-22T03:27:00;100397.0;;;12.37;65.55
32452;BME280;45528;52.102;5.242;2023-04-22T03:28:36;100401.0;;;12.4;65.49
32452;BME280;45528;52.102;5.242;2023-04-22T03:31:49;100401.0;;;12.45;65.25
32452;BME280;45528;52.102;5.242;2023-04-22T03:33:25;100398.0;;;12.38;65.62
32452;BME280;45528;52.102;5.242;2023-04-22T03:35:01;100397.0;;;12.31;65.8
32452;BME280;45528;52.102;5.242;2023-04-22T03:38:13;100400.0;;;12.41;65.58
32452;BME280;45528;52.102;5.242;2023-04-22T03:39:49;100395.0;;;12.37;65.64
32452;BME280;45528;52.102;5.242;2023-04-22T03:41:26;100389.0;;;12.49;65.25
32452;BME280;45528;52.102;5.242;2023-04-22T03:43:02;100389.0;;;12.46;65.3
32452;BME280;45528;52.102;5.242;2023-04-22T03:46:14;100385.0;;;12.44;65.44
32452;BME280;45528;52.102;5.242;2023-04-22T03:47:51;100380.0;;;12.42;65.49
32452;BME280;45528;52.102;5.242;2023-04-22T03:49:27;100378.0;;;12.51;65.3
32452;BME280;45528;52.102;5.242;2023-04-22T03:52:39;100376.0;;;12.51;65.22
32452;BME280;45528;52.102;5.242;2023-04-22T03:54:18;100376.0;;;12.54;65.03
32452;BME280;45528;52.102;5.242;2023-04-22T03:55:54;100372.0;;;12.54;65.08
32452;BME280;45528;52.102;5.242;2023-04-22T03:59:06;100371.0;;;12.56;64.91
32452;BME280;45528;52.102;5.242;2023-04-22T04:00:42;100372.0;;;12.49;65.2
32452;BME280;45528;52.102;5.242;2023-04-22T04:02:18;100370.0;;;12.45;65.37
32452;BME280;45528;52.102;5.242;2023-04-22T04:03:54;100368.0;;;12.39;65.64
32452;BME280;45528;52.102;5.242;2023-04-22T04:07:07;100365.0;;;12.39;65.74
32452;BME280;45528;52.102;5.242;2023-04-22T04:08:43;100361.0;;;12.36;65.98
32452;BME280;45528;52.102;5.242;2023-04-22T04:10:19;100361.0;;;12.39;66.05
32452;BME280;45528;52.102;5.242;2023-04-22T04:13:31;100359.0;;;12.39;65.99
32452;BME280;45528;52.102;5.242;2023-04-22T04:15:09;100361.0;;;12.41;65.97
32452;BME280;45528;52.102;5.242;2023-04-22T04:16:46;100359.0;;;12.48;65.94
32452;BME280;45528;52.102;5.242;2023-04-22T04:19:58;100355.0;;;12.47;66.08
32452;BME280;45528;52.102;5.242;2023-04-22T04:21:34;100350.0;;;12.65;65.53
32452;BME280;45528;52.102;5.242;2023-04-22T04:23:10;100346.0;;;12.69;65.17
32452;BME280;45528;52.102;5.242;2023-04-22T04:26:22;100344.0;;;12.76;64.83
32452;BME280;45528;52.102;5.242;2023-04-22T04:27:59;100344.0;;;12.68;65.03
32452;BME280;45528;52.102;5.242;2023-04-22T04:29:35;100339.0;;;12.64;65.22
32452;BME280;45528;52.102;5.242;2023-04-22T04:31:11;100337.0;;;12.61;65.52
32452;BME280;45528;52.102;5.242;2023-04-22T04:34:23;100337.0;;;12.58;65.72
32452;BME280;45528;52.102;5.242;2023-04-22T04:35:59;100338.0;;;12.58;65.66
32452;BME280;45528;52.102;5.242;2023-04-22T04:37:35;100342.0;;;12.56;65.97
32452;BME280;45528;52.102;5.242;2023-04-22T04:40:49;100346.0;;;12.57;66.2
32452;BME280;45528;52.102;5.242;2023-04-22T04:42:26;100347.0;;;12.6;65.94
32452;BME280;45528;52.102;5.242;2023-04-22T04:44:02;100338.0;;;12.62;65.86
32452;BME280;45528;52.102;5.242;2023-04-22T04:47:15;100335.0;;;12.82;65.3
32452;BME280;45528;52.102;5.242;2023-04-22T04:48:51;100330.0;;;12.82;64.97
32452;BME280;45528;52.102;5.242;2023-04-22T04:50:27;100328.0;;;12.72;65.55
32452;BME280;45528;52.102;5.242;2023-04-22T04:52:04;100327.0;;;12.74;65.45
32452;BME280;45528;52.102;5.242;2023-04-22T04:55:16;100325.0;;;12.74;65.41
32452;BME280;45528;52.102;5.242;2023-04-22T04:56:52;100327.0;;;12.75;65.45
32452;BME280;45528;52.102;5.242;2023-04-22T04:58:28;100333.0;;;12.76;65.47
32452;BME280;45528;52.102;5.242;2023-04-22T05:01:42;100333.0;;;12.83;65.47
32452;BME280;45528;52.102;5.242;2023-04-22T05:03:20;100327.0;;;12.77;65.55
32452;BME280;45528;52.102;5.242;2023-04-22T05:04:56;100324.0;;;12.72;65.58
32452;BME280;45528;52.102;5.242;2023-04-22T05:08:08;100327.0;;;12.81;65.31
32452;BME280;45528;52.102;5.242;2023-04-22T05:09:44;100330.0;;;12.81;65.19
32452;BME280;45528;52.102;5.242;2023-04-22T05:11:20;100327.0;;;12.82;65.36
32452;BME280;45528;52.102;5.242;2023-04-22T05:12:56;100331.0;;;12.8;65.69
32452;BME280;45528;52.102;5.242;2023-04-22T05:16:09;100330.0;;;12.8;65.8
32452;BME280;45528;52.102;5.242;2023-04-22T05:17:46;100335.0;;;12.89;65.56
32452;BME280;45528;52.102;5.242;2023-04-22T05:19:22;100335.0;;;12.89;65.81
32452;BME280;45528;52.102;5.242;2023-04-22T05:22:34;100344.0;;;12.9;65.69
32452;BME280;45528;52.102;5.242;2023-04-22T05:24:10;100344.0;;;12.94;65.8
32452;BME280;45528;52.102;5.242;2023-04-22T05:25:46;100340.0;;;13.03;65.67
32452;BME280;45528;52.102;5.242;2023-04-22T05:28:59;100345.0;;;13.1;65.53
32452;BME280;45528;52.102;5.242;2023-04-22T05:30:35;100342.0;;;13.17;65.34
32452;BME280;45528;52.102;5.242;2023-04-22T05:32:11;100340.0;;;13.15;65.66
32452;BME280;45528;52.102;5.242;2023-04-22T05:35:23;100337.0;;;13.09;65.89
32452;BME280;45528;52.102;5.242;2023-04-22T05:37:01;100342.0;;;13.15;65.86
32452;BME280;45528;52.102;5.242;2023-04-22T05:38:37;100348.0;;;13.16;65.84
32452;BME280;45528;52.102;5.242;2023-04-22T05:40:14;100348.0;;;13.18;66.0
32452;BME280;45528;52.102;5.242;2023-04-22T05:43:26;100341.0;;;13.29;65.83
32452;BME280;45528;52.102;5.242;2023-04-22T05:45:03;100353.0;;;13.25;66.22
32452;BME280;45528;52.102;5.242;2023-04-22T05:46:39;100348.0;;;13.3;66.14
32452;BME280;45528;52.102;5.242;2023-04-22T05:49:51;100349.0;;;13.36;66.2
32452;BME280;45528;52.102;5.242;2023-04-22T05:51:28;100349.0;;;13.41;66.33
32452;BME280;45528;52.102;5.242;2023-04-22T05:53:04;100347.0;;;13.47;66.17
32452;BME280;45528;52.102;5.242;2023-04-22T05:56:16;100350.0;;;13.55;65.89
32452;BME280;45528;52.102;5.242;2023-04-22T05:57:52;100352.0;;;13.66;65.58
32452;BME280;45528;52.102;5.242;2023-04-22T05:59:28;100356.0;;;13.66;65.58
32452;BME280;45528;52.102;5.242;2023-04-22T06:01:04;100353.0;;;13.63;65.84
32452;BME280;45528;52.102;5.242;2023-04-22T06:04:17;100351.0;;;13.72;65.62
32452;BME280;45528;52.102;5.242;2023-04-22T06:05:54;100352.0;;;13.76;65.8
32452;BME280;45528;52.102;5.242;2023-04-22T06:07:30;100350.0;;;13.78;65.77
32452;BME280;45528;52.102;5.242;2023-04-22T06:10:42;100351.0;;;13.78;65.97
32452;BME280;45528;52.102;5.242;2023-04-22T06:12:18;100348.0;;;13.78;66.39
32452;BME280;45528;52.102;5.242;2023-04-22T06:13:54;100344.0;;;13.9;66.38
32452;BME280;45528;52.102;5.242;2023-04-22T06:17:09;100338.0;;;13.98;66.05
32452;BME280;45528;52.102;5.242;2023-04-22T06:18:45;100337.0;;;14.12;66.11
32452;BME280;45528;52.102;5.242;2023-04-22T06:20:21;100332.0;;;14.29;65.91
32452;BME280;45528;52.102;5.242;2023-04-22T06:23:33;100325.0;;;14.43;65.73
32452;BME280;45528;52.102;5.242;2023-04-22T06:25:09;100328.0;;;14.55;65.58
32452;BME280;45528;52.102;5.242;2023-04-22T06:26:46;100327.0;;;14.69;65.28
32452;BME280;45528;52.102;5.242;2023-04-22T06:28:22;100326.0;;;14.71;65.5
32452;BME280;45528;52.102;5.242;2023-04-22T06:31:34;100323.0;;;14.74;65.42
32452;BME280;45528;52.102;5.242;2023-04-22T06:33:10;100319.0;;;14.8;65.69
32452;BME280;45528;52.102;5.242;2023-04-22T06:34:46;100327.0;;;14.86;65.44
32452;BME280;45528;52.102;5.242;2023-04-22T06:37:58;100325.0;;;14.88;65.22
32452;BME280;45528;52.102;5.242;2023-04-22T06:39:34;100319.0;;;14.98;65.28
32452;BME280;45528;52.102;5.242;2023-04-22T06:41:10;100311.0;;;15.06;65.39
32452;BME280;45528;52.102;5.242;2023-04-22T06:44:25;100305.0;;;15.16;65.41
32452;BME280;45528;52.102;5.242;2023-04-22T06:46:01;100307.0;;;15.22;65.0
32452;BME280;45528;52.102;5.242;2023-04-22T06:47:37;100305.0;;;15.29;65.19
32452;BME280;45528;52.102;5.242;2023-04-22T06:49:13;100299.0;;;15.31;65.2
32452;BME280;45528;52.102;5.242;2023-04-22T06:52:26;100298.0;;;15.31;65.19
32452;BME280;45528;52.102;5.242;2023-04-22T06:54:02;100300.0;;;15.35;65.1
32452;BME280;45528;52.102;5.242;2023-04-22T06:55:38;100295.0;;;15.43;65.13
32452;BME280;45528;52.102;5.242;2023-04-22T06:58:50;100290.0;;;15.43;65.02
32452;BME280;45528;52.102;5.242;2023-04-22T07:00:27;100289.0;;;15.51;64.91
32452;BME280;45528;52.102;5.242;2023-04-22T07:02:02;100287.0;;;15.67;64.53
32452;BME280;45528;52.102;5.242;2023-04-22T07:05:15;100290.0;;;15.71;64.92
32452;BME280;45528;52.102;5.242;2023-04-22T07:06:51;100290.0;;;15.78;64.98
32452;BME280;45528;52.102;5.242;2023-04-22T07:08:27;100292.0;;;15.84;64.66
32452;BME280;45528;52.102;5.242;2023-04-22T07:11:40;100289.0;;;15.93;64.45
32452;BME280;45528;52.102;5.242;2023-04-22T07:13:17;100288.0;;;15.98;64.62
32452;BME280;45528;52.102;5.242;2023-04-22T07:14:53;100288.0;;;16.13;64.55
32452;BME280;45528;52.102;5.242;2023-04-22T07:16:29;100287.0;;;16.2;64.56
32452;BME280;45528;52.102;5.242;2023-04-22T07:19:41;100293.0;;;16.27;64.35
32452;BME280;45528;52.102;5.242;2023-04-22T07:21:17;100298.0;;;16.37;63.77
32452;BME280;45528;52.102;5.242;2023-04-22T07:22:53;100291.0;;;16.45;63.48
32452;BME280;45528;52.102;5.242;2023-04-22T07:26:05;100287.0;;;16.46;63.59
32452;BME280;45528;52.102;5.242;2023-04-22T07:27:42;100288.0;;;16.63;63.54
32452;BME280;45528;52.102;5.242;2023-04-22T07:29:18;100291.0;;;16.8;62.54
32452;BME280;45528;52.102;5.242;2023-04-22T07:32:30;100290.0;;;16.84;62.65
32452;BME280;45528;52.102;5.242;2023-04-22T07:34:06;100277.0;;;17.02;62.39
32452;BME280;45528;52.102;5.242;2023-04-22T07:35:42;100280.0;;;17.27;62.16
32452;BME280;45528;52.102;5.242;2023-04-22T07:37:18;100284.0;;;17.36;62.11
32452;BME280;45528;52.102;5.242;2023-04-22T07:40:32;100286.0;;;17.61;61.1
32452;BME280;45528;52.102;5.242;2023-04-22T07:42:08;100295.0;;;17.82;61.04
32452;BME280;45528;52.102;5.242;2023-04-22T07:43:45;100301.0;;;17.84;60.44
32452;BME280;45528;52.102;5.242;2023-04-22T07:46:57;100306.0;;;17.91;60.11
32452;BME280;45528;52.102;5.242;2023-04-22T07:48:33;100306.0;;;18.06;60.48
32452;BME280;45528;52.102;5.242;2023-04-22T07:50:10;100302.0;;;18.41;60.27
32452;BME280;45528;52.102;5.242;2023-04-22T07:53:22;100302.0;;;18.59;58.94
32452;BME280;45528;52.102;5.242;2023-04-22T07:54:59;100307.0;;;18.75;58.22
32452;BME280;45528;52.102;5.242;2023-04-22T07:56:35;100314.0;;;18.86;58.07
32452;BME280;45528;52.102;5.242;2023-04-22T07:59:47;100311.0;;;19.11;57.24
32452;BME280;45528;52.102;5.242;2023-04-22T08:01:23;100313.0;;;19.23;57.32
32452;BME280;45528;52.102;5.242;2023-04-22T08:02:59;100320.0;;;19.25;56.97
32452;BME280;45528;52.102;5.242;2023-04-22T08:04:35;100320.0;;;19.2;55.71
32452;BME280;45528;52.102;5.242;2023-04-22T08:07:47;100314.0;;;19.09;56.09
32452;BME280;45528;52.102;5.242;2023-04-22T08:09:24;100315.0;;;19.02;55.91
32452;BME280;45528;52.102;5.242;2023-04-22T08:11:00;100309.0;;;19.22;55.89
32452;BME280;45528;52.102;5.242;2023-04-22T08:14:13;100303.0;;;19.2;56.16
32452;BME280;45528;52.102;5.242;2023-04-22T08:15:49;100296.0;;;19.46;55.96
32452;BME280;45528;52.102;5.242;2023-04-22T08:17:25;100287.0;;;19.55;54.86
32452;BME280;45528;52.102;5.242;2023-04-22T08:20:38;100287.0;;;19.56;55.24
32452;BME280;45528;52.102;5.242;2023-04-22T08:22:14;100286.0;;;19.5;54.9
32452;BME280;45528;52.102;5.242;2023-04-22T08:23:51;100280.0;;;19.84;55.46
32452;BME280;45528;52.102;5.242;2023-04-22T08:25:27;100268.0;;;20.07;54.72
32452;BME280;45528;52.102;5.242;2023-04-22T08:28:39;100260.0;;;20.18;53.39
32452;BME280;45528;52.102;5.242;2023-04-22T08:30:16;100257.0;;;20.49;54.29
32452;BME280;45528;52.102;5.242;2023-04-22T08:31:52;100257.0;;;20.66;53.73
32452;BME280;45528;52.102;5.242;2023-04-22T08:35:04;100260.0;;;20.83;52.33
32452;BME280;45528;52.102;5.242;2023-04-22T08:36:40;100266.0;;;20.64;52.06
32452;BME280;45528;52.102;5.242;2023-04-22T08:38:17;100263.0;;;20.68;52.4
32452;BME280;45528;52.102;5.242;2023-04-22T08:41:33;100261.0;;;20.85;53.01
32452;BME280;45528;52.102;5.242;2023-04-22T08:43:11;100259.0;;;20.98;52.79
32452;BME280;45528;52.102;5.242;2023-04-22T08:44:47;100259.0;;;20.95;52.41
32452;BME280;45528;52.102;5.242;2023-04-22T08:46:24;100262.0;;;21.08;52.02
32452;BME280;45528;52.102;5.242;2023-04-22T08:49:38;100260.0;;;21.11;52.09
32452;BME280;45528;52.102;5.242;2023-04-22T08:51:15;100255.0;;;21.29;51.14
32452;BME280;45528;52.102;5.242;2023-04-22T08:52:52;100256.0;;;21.34;50.85
32452;BME280;45528;52.102;5.242;2023-04-22T08:56:05;100252.0;;;21.59;50.22
32452;BME280;45528;52.102;5.242;2023-04-22T08:57:43;100252.0;;;21.6;50.15
32452;BME280;45528;52.102;5.242;2023-04-22T08:59:19;100251.0;;;21.77;49.86
32452;BME280;45528;52.102;5.242;2023-04-22T09:02:35;100255.0;;;21.77;49.7
32452;BME280;45528;52.102;5.242;2023-04-22T09:04:13;100252.0;;;21.71;50.16
32452;BME280;45528;52.102;5.242;2023-04-22T09:05:50;100246.0;;;21.93;49.39
32452;BME280;45528;52.102;5.242;2023-04-22T09:07:27;100245.0;;;22.09;48.91
32452;BME280;45528;52.102;5.242;2023-04-22T09:10:42;100241.0;;;22.0;48.04
32452;BME280;45528;52.102;5.242;2023-04-22T09:12:18;100243.0;;;21.92;48.85
32452;BME280;45528;52.102;5.242;2023-04-22T09:13:54;100241.0;;;21.95;49.07
32452;BME280;45528;52.102;5.242;2023-04-22T09:17:06;100238.0;;;22.13;48.79
32452;BME280;45528;52.102;5.242;2023-04-22T09:18:43;100232.0;;;22.22;48.67
32452;BME280;45528;52.102;5.242;2023-04-22T09:20:24;100233.0;;;22.46;47.7
32452;BME280;45528;52.102;5.242;2023-04-22T09:22:01;100230.0;;;22.78;47.68
32452;BME280;45528;52.102;5.242;2023-04-22T09:25:26;100227.0;;;22.81;47.97
32452;BME280;45528;52.102;5.242;2023-04-22T09:27:02;100221.0;;;22.69;47.02
32452;BME280;45528;52.102;5.242;2023-04-22T09:28:48;100221.0;;;22.56;47.36
32452;BME280;45528;52.102;5.242;2023-04-22T09:30:28;100218.0;;;22.53;47.98
32452;BME280;45528;52.102;5.242;2023-04-22T09:33:47;100221.0;;;22.51;47.34
32452;BME280;45528;52.102;5.242;2023-04-22T09:35:26;100214.0;;;22.62;46.44
32452;BME280;45528;52.102;5.242;2023-04-22T09:37:04;100208.0;;;22.73;47.52
32452;BME280;45528;52.102;5.242;2023-04-22T09:38:50;100199.0;;;22.86;46.21
32452;BME280;45528;52.102;5.242;2023-04-22T09:42:06;100191.0;;;22.91;45.75
32452;BME280;45528;52.102;5.242;2023-04-22T09:43:44;100185.0;;;22.72;45.04
32452;BME280;45528;52.102;5.242;2023-04-22T09:45:25;100171.0;;;23.01;46.22
32452;BME280;45528;52.102;5.242;2023-04-22T09:47:03;100170.0;;;23.12;47.15
32452;BME280;45528;52.102;5.242;2023-04-22T09:50:19;100168.0;;;23.17;45.74
32452;BME280;45528;52.102;5.242;2023-04-22T09:51:56;100174.0;;;23.47;44.83
32452;BME280;45528;52.102;5.242;2023-04-22T09:53:36;100182.0;;;23.47;45.27
32452;BME280;45528;52.102;5.242;2023-04-22T09:56:49;100181.0;;;23.36;44.31
32452;BME280;45528;52.102;5.242;2023-04-22T09:58:26;100183.0;;;23.56;46.25
32452;BME280;45528;52.102;5.242;2023-04-22T10:00:03;100180.0;;;23.79;44.26
32452;BME280;45528;52.102;5.242;2023-04-22T10:01:40;100176.0;;;23.84;45.29
32452;BME280;45528;52.102;5.242;2023-04-22T10:04:54;100177.0;;;23.72;45.87
32452;BME280;45528;52.102;5.242;2023-04-22T10:06:31;100183.0;;;23.91;44.36
32452;BME280;45528;52.102;5.242;2023-04-22T10:08:08;100184.0;;;23.94;44.06
32452;BME280;45528;52.102;5.242;2023-04-22T10:11:22;100185.0;;;24.04;44.35
32452;BME280;45528;52.102;5.242;2023-04-22T10:12:58;100186.0;;;24.18;44.08
32452;BME280;45528;52.102;5.242;2023-04-22T10:14:35;100184.0;;;24.49;43.9
32452;BME280;45528;52.102;5.242;2023-04-22T10:17:51;100184.0;;;24.47;43.55
32452;BME280;45528;52.102;5.242;2023-04-22T10:19:27;100188.0;;;24.69;42.44
32452;BME280;45528;52.102;5.242;2023-04-22T10:21:04;100185.0;;;24.91;42.53
32452;BME280;45528;52.102;5.242;2023-04-22T10:22:43;100185.0;;;24.82;43.22
32452;BME280;45528;52.102;5.242;2023-04-22T10:25:56;100186.0;;;24.94;43.32
32452;BME280;45528;52.102;5.242;2023-04-22T10:27:32;100185.0;;;24.92;42.76
32452;BME280;45528;52.102;5.242;2023-04-22T10:29:12;100187.0;;;25.1;41.52
32452;BME280;45528;52.102;5.242;2023-04-22T10:32:26;100190.0;;;25.12;42.77
32452;BME280;45528;52.102;5.242;2023-04-22T10:34:11;100188.0;;;25.21;41.59
32452;BME280;45528;52.102;5.242;2023-04-22T10:36:05;100190.0;;;25.14;41.49
32452;BME280;45528;52.102;5.242;2023-04-22T10:37:45;100189.0;;;24.89;42.67
32452;BME280;45528;52.102;5.242;2023-04-22T10:39:22;100190.0;;;24.65;43.84
32452;BME280;45528;52.102;5.242;2023-04-22T10:42:39;100190.0;;;24.81;43.51
32452;BME280;45528;52.102;5.242;2023-04-22T10:44:15;100196.0;;;25.0;42.74
32452;BME280;45528;52.102;5.242;2023-04-22T10:45:51;100201.0;;;24.98;43.07
32452;BME280;45528;52.102;5.242;2023-04-22T10:49:06;100195.0;;;25.11;43.1
32452;BME280;45528;52.102;5.242;2023-04-22T10:50:43;100196.0;;;25.13;43.61
32452;BME280;45528;52.102;5.242;2023-04-22T10:52:26;100209.0;;;24.64;44.34
32452;BME280;45528;52.102;5.242;2023-04-22T10:54:03;100210.0;;;24.22;45.27
32452;BME280;45528;52.102;5.242;2023-04-22T10:57:31;100209.0;;;24.27;44.97
32452;BME280;45528;52.102;5.242;2023-04-22T10:59:14;100215.0;;;24.16;45.56
32452;BME280;45528;52.102;5.242;2023-04-22T11:00:52;100217.0;;;24.26;44.86
32452;BME280;45528;52.102;5.242;2023-04-22T11:02:29;100220.0;;;24.33;44.65
32452;BME280;45528;52.102;5.242;2023-04-22T11:06:14;100219.0;;;24.06;45.17
32452;BME280;45528;52.102;5.242;2023-04-22T11:07:53;100220.0;;;24.02;45.1